createdAt,value
2023-03-16T00:02:12.090Z,0.50
2023-03-16T00:04:39.306Z,0.60
2023-03-16T00:07:11.394Z,0.60
2023-03-16T00:09:42.749Z,0.60
2023-03-16T00:12:16.057Z,0.60
2023-03-16T00:14:47.653Z,0.83
2023-03-16T00:17:19.757Z,0.60
2023-03-16T00:19:55.638Z,0.70
2023-03-16T00:22:28.606Z,0.50
2023-03-16T00:24:56.506Z,0.70
2023-03-16T00:27:25.177Z,0.80
2023-03-16T00:29:56.534Z,0.40
2023-03-16T00:32:29.539Z,0.70
2023-03-16T00:34:56.755Z,0.70
2023-03-16T00:37:25.592Z,0.57
2023-03-16T00:39:56.114Z,0.73
2023-03-16T00:42:27.839Z,0.70
2023-03-16T00:44:57.627Z,0.70
2023-03-16T00:47:27.005Z,0.40
2023-03-16T00:49:54.294Z,0.70
2023-03-16T00:52:22.272Z,0.67
2023-03-16T00:54:49.848Z,0.70
2023-03-16T00:57:21.678Z,0.47
2023-03-16T00:59:49.306Z,0.63
2023-03-16T01:02:19.384Z,0.67
2023-03-16T01:04:46.513Z,0.53
2023-03-16T01:07:14.630Z,1.00
2023-03-16T01:09:42.865Z,0.70
2023-03-16T01:12:15.501Z,1.10
2023-03-16T01:14:42.851Z,0.60
2023-03-16T01:17:10.048Z,0.60
2023-03-16T01:19:37.864Z,0.77
2023-03-16T01:22:09.818Z,0.87
2023-03-16T01:24:37.876Z,1.00
2023-03-16T01:27:05.641Z,1.00
2023-03-16T01:29:33.204Z,0.87
2023-03-16T01:32:01.289Z,1.30
2023-03-16T01:34:28.672Z,1.10
2023-03-16T01:36:56.356Z,0.60
2023-03-16T01:39:23.609Z,0.73
2023-03-16T01:41:50.566Z,0.67
2023-03-16T01:44:20.240Z,0.50
2023-03-16T01:46:47.205Z,0.70
2023-03-16T01:49:32.800Z,0.60
2023-03-16T01:52:13.399Z,0.87
2023-03-16T01:54:48.219Z,0.67
2023-03-16T01:57:23.606Z,0.80
2023-03-16T02:00:09.925Z,0.90
2023-03-16T02:02:43.629Z,0.73
2023-03-16T02:05:19.791Z,0.53
2023-03-16T02:07:49.330Z,0.70
2023-03-16T02:10:19.838Z,0.80
2023-03-16T02:12:47.264Z,1.33
2023-03-16T02:15:15.161Z,0.90
2023-03-16T02:17:44.018Z,0.70
2023-03-16T02:20:38.373Z,0.67
2023-03-16T02:23:07.962Z,0.70
2023-03-16T02:25:41.683Z,0.70
2023-03-16T02:28:19.031Z,0.70
2023-03-16T02:30:47.514Z,0.70
2023-03-16T02:33:17.333Z,0.50
2023-03-16T02:35:44.576Z,0.83
2023-03-16T02:38:11.594Z,0.63
2023-03-16T02:40:38.889Z,0.60
2023-03-16T02:43:11.275Z,1.03
2023-03-16T02:45:43.618Z,0.70
2023-03-16T02:48:16.800Z,0.80
2023-03-16T02:50:53.077Z,0.67
2023-03-16T02:53:20.327Z,0.50
2023-03-16T02:55:47.473Z,0.67
2023-03-16T02:58:16.143Z,0.80
2023-03-16T03:00:43.549Z,0.57
2023-03-16T03:03:10.515Z,0.80
2023-03-16T03:05:38.227Z,0.60
2023-03-16T03:08:06.001Z,0.77
2023-03-16T03:10:33.309Z,0.80
2023-03-16T03:13:00.398Z,0.80
2023-03-16T03:15:27.299Z,0.50
2023-03-16T03:17:54.277Z,0.80
2023-03-16T03:20:21.733Z,0.70
2023-03-16T03:22:50.269Z,0.60
2023-03-16T03:25:18.560Z,0.60
2023-03-16T03:27:47.007Z,0.40
2023-03-16T03:30:18.171Z,0.60
2023-03-16T03:32:45.873Z,0.57
2023-03-16T03:35:15.016Z,0.80
2023-03-16T03:37:44.221Z,0.80
2023-03-16T03:40:14.276Z,0.80
2023-03-16T03:42:42.069Z,0.50
2023-03-16T03:45:12.939Z,0.80
2023-03-16T03:47:41.981Z,0.50
2023-03-16T03:50:10.883Z,0.67
2023-03-16T03:52:37.895Z,0.60
2023-03-16T03:55:05.934Z,0.70
2023-03-16T03:57:33.034Z,0.67
2023-03-16T03:59:59.930Z,0.50
2023-03-16T04:02:27.004Z,0.50
2023-03-16T04:04:54.044Z,0.50
2023-03-16T04:07:20.988Z,0.63
2023-03-16T04:09:48.003Z,0.63
2023-03-16T04:12:14.983Z,0.63
2023-03-16T04:14:41.901Z,0.47
2023-03-16T04:17:08.952Z,0.60
2023-03-16T04:19:35.933Z,0.53
2023-03-16T04:22:02.913Z,0.67
2023-03-16T04:24:29.832Z,0.53
2023-03-16T04:26:56.737Z,0.83
2023-03-16T04:29:25.463Z,0.50
2023-03-16T04:31:54.070Z,0.50
2023-03-16T04:34:25.143Z,0.57
2023-03-16T04:36:52.924Z,0.50
2023-03-16T04:39:22.269Z,0.50
2023-03-16T04:41:49.903Z,0.70
2023-03-16T04:44:17.442Z,1.00
2023-03-16T04:46:44.446Z,0.50
2023-03-16T04:49:11.385Z,0.60
2023-03-16T04:51:40.697Z,0.70
2023-03-16T04:54:08.039Z,0.53
2023-03-16T04:56:34.979Z,0.57
2023-03-16T04:59:01.927Z,0.60
2023-03-16T05:01:28.872Z,0.63
2023-03-16T05:03:57.501Z,0.60
2023-03-16T05:06:25.491Z,0.60
2023-03-16T05:08:52.357Z,0.60
2023-03-16T05:11:19.301Z,0.90
2023-03-16T05:13:46.248Z,0.60
2023-03-16T05:16:13.823Z,0.73
2023-03-16T05:18:41.694Z,0.37
2023-03-16T05:21:08.899Z,0.53
2023-03-16T05:23:35.969Z,0.60
2023-03-16T05:26:02.946Z,0.80
2023-03-16T05:28:29.925Z,0.73
2023-03-16T05:30:56.841Z,0.60
2023-03-16T05:33:23.863Z,0.80
2023-03-16T05:35:51.355Z,0.73
2023-03-16T05:38:18.391Z,0.50
2023-03-16T05:40:46.212Z,0.60
2023-03-16T05:43:13.637Z,0.57
2023-03-16T05:45:40.550Z,0.70
2023-03-16T05:48:07.566Z,0.67
2023-03-16T05:50:34.701Z,0.50
2023-03-16T05:53:01.656Z,0.60
2023-03-16T05:55:28.635Z,0.50
2023-03-16T05:57:55.561Z,0.67
2023-03-16T06:00:23.197Z,0.60
2023-03-16T06:02:52.596Z,0.80
2023-03-16T06:05:25.273Z,0.60
2023-03-16T06:07:52.553Z,0.60
2023-03-16T06:10:19.582Z,0.50
2023-03-16T06:12:46.968Z,0.60
2023-03-16T06:15:14.070Z,0.70
2023-03-16T06:17:41.547Z,0.90
2023-03-16T06:20:11.587Z,0.70
2023-03-16T06:22:42.506Z,0.63
2023-03-16T06:25:12.121Z,0.50
2023-03-16T06:27:40.038Z,0.83
2023-03-16T06:30:09.864Z,0.67
2023-03-16T06:32:38.016Z,0.70
2023-03-16T06:35:05.823Z,0.70
2023-03-16T06:37:33.092Z,0.63
2023-03-16T06:40:00.125Z,0.80
2023-03-16T06:42:27.363Z,0.70
2023-03-16T06:44:54.365Z,0.50
2023-03-16T06:47:21.613Z,0.90
2023-03-16T06:49:48.819Z,0.93
2023-03-16T06:52:15.826Z,0.60
2023-03-16T06:54:42.759Z,0.60
2023-03-16T06:57:09.795Z,0.90
2023-03-16T06:59:36.760Z,0.83
2023-03-16T07:02:03.970Z,1.13
2023-03-16T07:04:30.927Z,0.80
2023-03-16T07:06:57.891Z,0.50
2023-03-16T07:09:24.837Z,0.77
2023-03-16T07:11:53.038Z,0.67
2023-03-16T07:14:20.066Z,0.70
2023-03-16T07:16:47.086Z,0.90
2023-03-16T07:19:14.088Z,0.73
2023-03-16T07:21:41.932Z,0.90
2023-03-16T07:24:10.249Z,1.30
2023-03-16T07:26:37.482Z,0.70
2023-03-16T07:29:07.873Z,0.83
2023-03-16T07:31:35.684Z,1.10
2023-03-16T07:34:04.096Z,1.17
2023-03-16T07:36:31.562Z,0.70
2023-03-16T07:38:58.828Z,0.90
2023-03-16T07:41:25.814Z,0.83
2023-03-16T07:43:53.466Z,1.20
2023-03-16T07:46:20.559Z,1.10
2023-03-16T07:48:47.716Z,0.93
2023-03-16T07:51:15.066Z,0.83
2023-03-16T07:53:42.243Z,0.70
2023-03-16T07:56:09.347Z,0.90
2023-03-16T07:58:36.253Z,0.80
2023-03-16T08:01:04.011Z,1.13
2023-03-16T08:03:32.073Z,0.80
2023-03-16T08:05:59.159Z,0.77
2023-03-16T08:08:26.133Z,0.80
2023-03-16T08:10:55.057Z,1.00
2023-03-16T08:13:23.856Z,1.17
2023-03-16T08:15:58.817Z,0.87
2023-03-16T08:18:26.608Z,1.00
2023-03-16T08:20:54.725Z,0.90
2023-03-16T08:23:22.498Z,0.80
2023-03-16T08:25:57.315Z,1.00
2023-03-16T08:28:25.980Z,0.83
2023-03-16T08:30:55.617Z,0.87
2023-03-16T08:33:23.493Z,1.20
2023-03-16T08:35:51.016Z,1.00
2023-03-16T08:38:19.268Z,1.00
2023-03-16T08:40:49.640Z,0.93
2023-03-16T08:43:18.037Z,1.20
2023-03-16T08:45:46.266Z,0.80
2023-03-16T08:48:14.366Z,1.10
2023-03-16T08:50:43.366Z,0.93
2023-03-16T08:53:12.111Z,0.93
2023-03-16T08:55:40.413Z,0.90
2023-03-16T08:58:08.494Z,0.80
2023-03-16T09:00:36.473Z,1.20
2023-03-16T09:03:03.654Z,0.90
2023-03-16T09:05:31.223Z,1.33
2023-03-16T09:07:58.865Z,1.03
2023-03-16T09:10:27.669Z,1.50
2023-03-16T09:12:55.023Z,1.00
2023-03-16T09:15:22.106Z,1.00
2023-03-16T09:17:50.395Z,1.10
2023-03-16T09:20:22.716Z,1.10
2023-03-16T09:22:54.652Z,1.40
2023-03-16T09:25:21.884Z,1.10
2023-03-16T09:27:49.061Z,1.00
2023-03-16T09:30:17.026Z,0.97
2023-03-16T09:32:44.957Z,1.87
2023-03-16T09:35:12.149Z,1.40
2023-03-16T09:37:45.481Z,1.00
2023-03-16T09:40:26.643Z,0.83
2023-03-16T09:43:14.428Z,1.20
2023-03-16T09:46:12.042Z,0.90
2023-03-16T09:48:41.105Z,0.90
2023-03-16T09:51:39.363Z,1.10
2023-03-16T09:54:21.985Z,1.07
2023-03-16T09:56:50.390Z,0.90
2023-03-16T09:59:19.087Z,0.93
2023-03-16T10:02:15.680Z,1.20
2023-03-16T10:05:06.375Z,1.07
2023-03-16T10:08:18.653Z,1.43
2023-03-16T10:11:13.583Z,1.00
2023-03-16T10:13:47.664Z,1.20
2023-03-16T10:16:45.182Z,1.40
2023-03-16T10:19:21.546Z,1.27
2023-03-16T10:21:54.468Z,1.30
2023-03-16T10:24:43.820Z,1.10
2023-03-16T10:27:24.672Z,1.27
2023-03-16T10:29:51.661Z,1.20
2023-03-16T10:32:24.160Z,1.00
2023-03-16T10:35:11.272Z,0.80
2023-03-16T10:37:38.765Z,1.00
2023-03-16T10:40:09.231Z,0.80
2023-03-16T10:42:37.172Z,1.00
2023-03-16T10:45:04.556Z,0.63
2023-03-16T10:47:33.688Z,0.80
2023-03-16T10:50:14.336Z,1.10
2023-03-16T10:52:45.270Z,1.00
2023-03-16T10:55:19.662Z,1.00
2023-03-16T10:57:55.155Z,1.00
2023-03-16T11:00:37.092Z,1.83
2023-03-16T11:03:22.916Z,1.50
2023-03-16T11:06:01.024Z,0.80
2023-03-16T11:08:33.886Z,0.83
2023-03-16T11:11:08.517Z,0.73
2023-03-16T11:13:38.686Z,0.80
2023-03-16T11:16:30.729Z,0.60
2023-03-16T11:19:11.249Z,1.23
2023-03-16T11:21:44.810Z,1.20
2023-03-16T11:24:24.569Z,1.20
2023-03-16T11:26:56.109Z,0.70
2023-03-16T11:30:07.673Z,1.10
2023-03-16T11:32:40.329Z,0.90
2023-03-16T11:35:17.688Z,1.17
2023-03-16T11:38:17.720Z,1.13
2023-03-16T11:41:10.822Z,1.00
2023-03-16T11:43:55.450Z,1.90
2023-03-16T11:46:36.765Z,1.10
2023-03-16T11:49:48.468Z,1.10
2023-03-16T11:52:18.180Z,1.07
2023-03-16T11:55:13.134Z,1.17
2023-03-16T11:58:18.117Z,1.40
2023-03-16T12:01:08.654Z,1.17
2023-03-16T12:03:42.512Z,1.00
2023-03-16T12:06:35.396Z,1.07
2023-03-16T12:09:19.915Z,1.07
2023-03-16T12:12:23.830Z,1.00
2023-03-16T12:15:25.697Z,1.27
2023-03-16T12:18:15.374Z,1.03
2023-03-16T12:21:05.761Z,0.90
2023-03-16T12:23:52.295Z,1.07
2023-03-16T12:26:25.587Z,0.97
2023-03-16T12:28:55.395Z,1.30
2023-03-16T12:31:36.485Z,1.00
2023-03-16T12:34:40.878Z,1.40
2023-03-16T12:37:22.109Z,1.40
2023-03-16T12:40:15.703Z,1.20
2023-03-16T12:43:06.935Z,0.90
2023-03-16T12:45:42.097Z,1.27
2023-03-16T12:48:43.371Z,1.00
2023-03-16T12:51:10.858Z,1.03
2023-03-16T12:53:43.420Z,1.20
2023-03-16T12:56:13.552Z,1.20
2023-03-16T12:58:43.987Z,1.27
2023-03-16T13:01:12.672Z,1.60
2023-03-16T13:03:42.244Z,0.97
2023-03-16T13:06:18.302Z,1.10
2023-03-16T13:08:52.453Z,1.00
2023-03-16T13:11:20.217Z,1.20
2023-03-16T13:14:00.593Z,1.20
2023-03-16T13:16:33.915Z,1.27
2023-03-16T13:19:01.001Z,1.40
2023-03-16T13:21:36.390Z,1.27
2023-03-16T13:24:28.866Z,1.13
2023-03-16T13:27:05.965Z,1.70
2023-03-16T13:29:33.472Z,1.30
2023-03-16T13:32:07.625Z,1.33
2023-03-16T13:34:49.328Z,1.33
2023-03-16T13:37:20.118Z,1.20
2023-03-16T13:39:55.232Z,1.20
2023-03-16T13:42:24.858Z,1.23
2023-03-16T13:44:57.743Z,1.53
2023-03-16T13:47:27.618Z,1.20
2023-03-16T13:50:00.157Z,1.43
2023-03-16T13:52:30.634Z,1.53
2023-03-16T13:54:59.121Z,1.20
2023-03-16T13:57:29.638Z,1.57
2023-03-16T14:00:18.166Z,2.13
2023-03-16T14:02:47.326Z,1.80
2023-03-16T14:05:40.966Z,1.20
2023-03-16T14:08:21.819Z,1.43
2023-03-16T14:10:49.541Z,1.20
2023-03-16T14:13:32.518Z,0.93
2023-03-16T14:16:01.166Z,1.20
2023-03-16T14:18:43.460Z,0.93
2023-03-16T14:21:18.025Z,1.00
2023-03-16T14:23:47.418Z,1.00
2023-03-16T14:26:18.532Z,1.03
2023-03-16T14:29:04.863Z,0.90
2023-03-16T14:31:38.702Z,1.10
2023-03-16T14:34:19.893Z,1.10
2023-03-16T14:36:46.833Z,0.70
2023-03-16T14:39:19.446Z,0.90
2023-03-16T14:41:51.354Z,0.83
2023-03-16T14:44:24.428Z,0.53
2023-03-16T14:46:57.012Z,0.70
2023-03-16T14:49:33.215Z,0.70
2023-03-16T14:52:04.425Z,0.93
2023-03-16T14:54:31.559Z,0.80
2023-03-16T14:57:05.569Z,1.03
2023-03-16T14:59:35.476Z,1.10
2023-03-16T15:02:06.884Z,0.93
2023-03-16T15:04:36.394Z,0.97
2023-03-16T15:07:35.351Z,1.10
2023-03-16T15:10:15.385Z,1.00
2023-03-16T15:12:53.952Z,0.80
2023-03-16T15:15:23.638Z,0.70
2023-03-16T15:17:52.374Z,0.80
2023-03-16T15:20:29.930Z,0.70
2023-03-16T15:22:58.748Z,0.70
2023-03-16T15:25:36.504Z,1.47
2023-03-16T15:28:17.684Z,0.90
2023-03-16T15:30:50.680Z,0.87
2023-03-16T15:33:18.044Z,1.57
2023-03-16T15:35:47.732Z,0.77
2023-03-16T15:38:16.619Z,0.93
2023-03-16T15:40:45.543Z,1.00
2023-03-16T15:43:14.539Z,0.87
2023-03-16T15:45:41.726Z,1.17
2023-03-16T15:48:10.898Z,1.10
2023-03-16T15:50:40.936Z,0.80
2023-03-16T15:53:29.631Z,1.20
2023-03-16T15:56:01.283Z,0.90
2023-03-16T15:58:29.035Z,0.97
2023-03-16T16:00:58.669Z,1.00
2023-03-16T16:03:27.375Z,0.93
2023-03-16T16:05:54.824Z,1.10
2023-03-16T16:08:21.817Z,1.13
2023-03-16T16:10:50.234Z,0.87
2023-03-16T16:13:23.392Z,1.00
2023-03-16T16:15:53.093Z,0.90
2023-03-16T16:18:36.528Z,1.43
2023-03-16T16:21:05.548Z,1.30
2023-03-16T16:23:33.326Z,1.03
2023-03-16T16:26:03.196Z,1.27
2023-03-16T16:28:32.349Z,1.17
2023-03-16T16:31:01.553Z,1.60
2023-03-16T16:33:30.896Z,0.80
2023-03-16T16:36:03.724Z,1.10
2023-03-16T16:38:32.420Z,1.00
2023-03-16T16:41:07.063Z,0.90
2023-03-16T16:43:41.706Z,1.00
2023-03-16T16:46:21.601Z,0.90
2023-03-16T16:48:53.649Z,1.20
2023-03-16T16:51:26.777Z,0.80
2023-03-16T16:53:55.800Z,0.90
2023-03-16T16:56:35.806Z,0.97
2023-03-16T16:59:19.320Z,0.70
2023-03-16T17:01:48.182Z,0.77
2023-03-16T17:04:17.991Z,1.20
2023-03-16T17:06:46.256Z,2.00
2023-03-16T17:09:14.337Z,2.10
2023-03-16T17:11:43.654Z,2.50
2023-03-16T17:14:16.978Z,1.30
2023-03-16T17:16:44.826Z,2.30
2023-03-16T17:19:27.320Z,1.73
2023-03-16T17:21:57.317Z,2.10
2023-03-16T17:24:24.830Z,2.83
2023-03-16T17:26:57.058Z,2.00
2023-03-16T17:29:32.204Z,1.30
2023-03-16T17:32:01.449Z,1.57
2023-03-16T17:34:30.336Z,2.10
2023-03-16T17:36:57.317Z,2.03
2023-03-16T17:39:29.605Z,2.50
2023-03-16T17:42:05.417Z,1.50
2023-03-16T17:44:39.996Z,2.77
2023-03-16T17:47:31.189Z,1.43
2023-03-16T17:49:58.158Z,1.73
2023-03-16T17:52:28.425Z,1.50
2023-03-16T17:54:55.604Z,1.33
2023-03-16T17:57:32.130Z,1.57
2023-03-16T18:00:01.595Z,1.50
2023-03-16T18:02:54.017Z,1.50
2023-03-16T18:05:26.563Z,1.70
2023-03-16T18:07:54.688Z,1.50
2023-03-16T18:10:25.020Z,1.70
2023-03-16T18:13:08.144Z,2.60
2023-03-16T18:15:39.402Z,3.57
2023-03-16T18:18:07.993Z,7.10
2023-03-16T18:20:36.630Z,4.30
2023-03-16T18:23:25.399Z,3.00
2023-03-16T18:25:54.750Z,1.90
2023-03-16T18:28:22.150Z,1.50
2023-03-16T18:30:52.790Z,2.90
2023-03-16T18:33:30.113Z,5.60
2023-03-16T18:36:00.809Z,2.80
2023-03-16T18:38:32.642Z,1.40
2023-03-16T18:41:02.122Z,1.43
2023-03-16T18:43:29.923Z,1.47
2023-03-16T18:45:57.057Z,1.57
2023-03-16T18:48:32.792Z,1.70
2023-03-16T18:51:01.056Z,3.20
2023-03-16T18:53:28.962Z,4.27
2023-03-16T18:55:57.574Z,3.90
2023-03-16T18:58:25.667Z,4.40
2023-03-16T19:00:58.370Z,5.03
2023-03-16T19:03:31.002Z,12.47
2023-03-16T19:05:59.980Z,26.07
2023-03-16T19:08:28.965Z,7.50
2023-03-16T19:10:59.050Z,4.40
2023-03-16T19:13:26.385Z,12.23
2023-03-16T19:15:55.811Z,12.53
2023-03-16T19:18:24.834Z,6.27
2023-03-16T19:20:53.781Z,3.43
2023-03-16T19:23:25.790Z,3.73
2023-03-16T19:25:54.357Z,12.40
2023-03-16T19:28:34.824Z,44.57
2023-03-16T19:31:05.113Z,37.00
2023-03-16T19:33:32.136Z,21.60
2023-03-16T19:35:59.620Z,15.57
2023-03-16T19:38:26.884Z,5.47
2023-03-16T19:40:59.570Z,7.33
2023-03-16T19:43:28.540Z,44.37
2023-03-16T19:45:56.645Z,40.40
2023-03-16T19:48:33.792Z,29.63
2023-03-16T19:51:01.365Z,17.63
2023-03-16T19:53:28.335Z,13.57
2023-03-16T19:55:55.411Z,9.60
2023-03-16T19:58:36.105Z,10.27
2023-03-16T20:01:03.143Z,6.67
2023-03-16T20:03:38.665Z,5.50
2023-03-16T20:06:05.901Z,5.63
2023-03-16T20:08:32.874Z,9.20
2023-03-16T20:11:04.271Z,4.53
2023-03-16T20:13:31.592Z,4.40
2023-03-16T20:15:58.928Z,6.27
2023-03-16T20:18:26.426Z,13.87
2023-03-16T20:20:53.438Z,10.13
2023-03-16T20:23:26.235Z,9.93
2023-03-16T20:25:56.450Z,15.57
2023-03-16T20:28:32.725Z,10.03
2023-03-16T20:31:00.681Z,9.10
2023-03-16T20:33:28.852Z,18.10
2023-03-16T20:35:56.434Z,11.33
2023-03-16T20:38:23.815Z,6.90
2023-03-16T20:40:53.629Z,5.20
2023-03-16T20:43:32.067Z,4.77
2023-03-16T20:46:01.691Z,4.10
2023-03-16T20:48:29.444Z,3.70
2023-03-16T20:51:00.592Z,3.90
2023-03-16T20:53:27.696Z,3.80
2023-03-16T20:55:55.198Z,3.57
2023-03-16T20:58:28.026Z,11.70
2023-03-16T21:01:01.009Z,2.80
2023-03-16T21:03:30.874Z,1.90
2023-03-16T21:05:59.995Z,2.80
2023-03-16T21:08:27.270Z,6.27
2023-03-16T21:10:56.818Z,5.13
2023-03-16T21:13:31.802Z,3.17
2023-03-16T21:16:01.713Z,2.17
2023-03-16T21:18:30.537Z,2.70
2023-03-16T21:20:58.801Z,2.37
2023-03-16T21:23:26.173Z,1.87
2023-03-16T21:26:20.324Z,2.37
2023-03-16T21:28:57.517Z,2.03
2023-03-16T21:31:25.896Z,1.70
2023-03-16T21:33:54.490Z,1.90
2023-03-16T21:36:23.736Z,1.67
2023-03-16T21:38:52.357Z,1.70
2023-03-16T21:41:20.090Z,1.67
2023-03-16T21:43:47.368Z,1.83
2023-03-16T21:46:19.704Z,1.70
2023-03-16T21:48:49.693Z,1.70
2023-03-16T21:51:20.927Z,2.10
2023-03-16T21:53:49.617Z,1.70
2023-03-16T21:56:19.504Z,2.03
2023-03-16T21:58:47.358Z,1.97
2023-03-16T22:01:25.327Z,1.80
2023-03-16T22:03:57.969Z,1.93
2023-03-16T22:06:28.039Z,2.00
2023-03-16T22:08:56.388Z,1.67
2023-03-16T22:11:28.132Z,2.00
2023-03-16T22:13:57.485Z,2.17
2023-03-16T22:16:28.063Z,1.90
2023-03-16T22:18:56.965Z,1.73
2023-03-16T22:21:39.164Z,1.77
2023-03-16T22:24:12.283Z,1.43
2023-03-16T22:26:39.258Z,1.97
2023-03-16T22:29:28.337Z,2.00
2023-03-16T22:32:08.586Z,2.03
2023-03-16T22:34:53.795Z,1.60
2023-03-16T22:37:24.150Z,1.80
2023-03-16T22:39:51.458Z,1.90
2023-03-16T22:42:31.948Z,1.50
2023-03-16T22:44:59.080Z,2.00
2023-03-16T22:47:29.329Z,2.07
2023-03-16T22:49:56.329Z,2.10
2023-03-16T22:52:29.545Z,1.77
2023-03-16T22:54:58.018Z,1.83
2023-03-16T22:57:25.088Z,2.07
2023-03-16T22:59:52.816Z,2.27
2023-03-16T23:02:24.243Z,1.90
2023-03-16T23:04:51.216Z,1.27
2023-03-16T23:07:18.259Z,1.70
2023-03-16T23:09:45.697Z,1.53
2023-03-16T23:12:20.444Z,1.43
2023-03-16T23:14:47.719Z,1.43
2023-03-16T23:17:20.185Z,2.10
2023-03-16T23:19:48.241Z,1.13
2023-03-16T23:22:16.026Z,1.40
2023-03-16T23:24:43.370Z,1.50
2023-03-16T23:27:22.815Z,1.97
2023-03-16T23:29:49.804Z,1.17
2023-03-16T23:32:17.486Z,1.63
2023-03-16T23:34:44.664Z,1.70
2023-03-16T23:37:11.972Z,1.50
2023-03-16T23:39:39.842Z,1.93
2023-03-16T23:42:07.566Z,1.47
2023-03-16T23:44:34.714Z,1.67
2023-03-16T23:47:02.334Z,1.33
2023-03-16T23:49:32.970Z,1.33
2023-03-16T23:52:01.678Z,1.57
2023-03-16T23:54:30.719Z,1.80
2023-03-16T23:56:58.056Z,1.30
2023-03-16T23:59:25.594Z,1.63
